Time;durP1;ratioP1;P1;durP2;ratioP2;P2;SDS_P1;SDS_P2;PMS_P1;PMS_P2;Temp;Humidity;BMP_temperature;BMP_pressure;BME280_temperature;BME280_humidity;BME280_pressure;Samples;Min_cycle;Max_cycle;Signal;HPM_P1;HPM_P2
2022/10/15 00:01:34;;;;;;;0.10;0.10;;;;;;;;;;4941789;28;20487;-91
2022/10/15 00:04:00;;;;;;;0.70;0.20;;;;;;;;;;4973992;28;20325;-91
2022/10/15 00:06:26;;;;;;;0.10;0.10;;;;;;;;;;4942428;28;20447;-91
2022/10/15 00:08:52;;;;;;;0.10;0.10;;;;;;;;;;4941970;28;20049;-91
2022/10/15 00:11:19;;;;;;;0.75;0.75;;;;;;;;;;4941623;28;20043;-90
2022/10/15 00:13:45;;;;;;;0.38;0.38;;;;;;;;;;4941804;28;20492;-91
2022/10/15 00:16:12;;;;;;;0.25;0.25;;;;;;;;;;4942075;28;20110;-91
2022/10/15 00:18:39;;;;;;;0.10;0.10;;;;;;;;;;4957806;28;20043;-91
2022/10/15 00:21:06;;;;;;;0.20;0.20;;;;;;;;;;4957631;28;20050;-91
2022/10/15 00:23:32;;;;;;;0.10;0.10;;;;;;;;;;4941430;28;20081;-91
2022/10/15 00:26:02;;;;;;;0.10;0.10;;;;;;;;;;4941628;28;20070;-90
2022/10/15 00:28:28;;;;;;;0.10;0.10;;;;;;;;;;4941432;28;20089;-90
2022/10/15 00:30:59;;;;;;;0.10;0.10;;;;;;;;;;4941161;28;20105;-92
2022/10/15 00:33:25;;;;;;;0.10;0.10;;;;;;;;;;4957633;28;20074;-90
2022/10/15 00:35:58;;;;;;;0.25;0.25;;;;;;;;;;4957197;28;20050;-90
2022/10/15 00:38:24;;;;;;;0.52;0.40;;;;;;;;;;4941322;28;20042;-90
2022/10/15 00:40:50;;;;;;;0.30;0.30;;;;;;;;;;4940999;28;20049;-90
2022/10/15 00:43:16;;;;;;;0.10;0.10;;;;;;;;;;4956981;28;20046;-89
2022/10/15 00:45:42;;;;;;;0.10;0.10;;;;;;;;;;4957268;28;20046;-90
2022/10/15 00:48:09;;;;;;;0.75;0.75;;;;;;;;;;4941164;28;20129;-90
2022/10/15 00:50:35;;;;;;;0.10;0.10;;;;;;;;;;4956808;28;20076;-90
2022/10/15 00:53:02;;;;;;;0.10;0.10;;;;;;;;;;4940931;28;20053;-89
2022/10/15 00:55:29;;;;;;;0.20;0.20;;;;;;;;;;4940754;28;20085;-89
2022/10/15 00:57:55;;;;;;;0.10;0.10;;;;;;;;;;4956802;28;20500;-89
2022/10/15 01:00:21;;;;;;;0.20;0.20;;;;;;;;;;4956570;28;20098;-89
2022/10/15 01:02:47;;;;;;;0.10;0.10;;;;;;;;;;4956879;28;20049;-89
2022/10/15 01:05:14;;;;;;;0.10;0.10;;;;;;;;;;4940793;28;20043;-90
2022/10/15 01:07:40;;;;;;;0.10;0.10;;;;;;;;;;4939918;28;20054;-90
2022/10/15 01:10:06;;;;;;;0.10;0.10;;;;;;;;;;4956557;28;20073;-91
2022/10/15 01:12:51;;;;;;;0.17;0.17;;;;;;;;;;4940237;28;20162;-90
2022/10/15 01:15:50;;;;;;;0.10;0.10;;;;;;;;;;4956804;28;20046;-93
2022/10/15 01:18:36;;;;;;;0.10;0.10;;;;;;;;;;4915034;28;20442;-90
2022/10/15 01:21:11;;;;;;;0.10;0.10;;;;;;;;;;4956180;28;20046;-90
2022/10/15 01:23:46;;;;;;;0.10;0.10;;;;;;;;;;4956484;28;20153;-90
2022/10/15 01:26:15;;;;;;;0.10;0.10;;;;;;;;;;4956341;28;20531;-90
2022/10/15 01:29:03;;;;;;;0.25;0.25;;;;;;;;;;4956186;28;20039;-90
2022/10/15 01:31:34;;;;;;;0.10;0.10;;;;;;;;;;4955880;28;20045;-90
2022/10/15 01:34:02;;;;;;;0.15;0.15;;;;;;;;;;4940449;28;20074;-89
2022/10/15 01:36:32;;;;;;;0.10;0.10;;;;;;;;;;4956218;28;20436;-90
2022/10/15 01:39:04;;;;;;;0.10;0.10;;;;;;;;;;4940240;28;20046;-89
2022/10/15 01:41:33;;;;;;;0.20;0.20;;;;;;;;;;4955921;28;20046;-90
2022/10/15 01:44:04;;;;;;;0.10;0.10;;;;;;;;;;4956185;28;20400;-90
2022/10/15 01:46:32;;;;;;;0.10;0.10;;;;;;;;;;4940649;28;20495;-90
2022/10/15 01:48:58;;;;;;;0.10;0.10;;;;;;;;;;4939572;28;20051;-90
2022/10/15 01:51:24;;;;;;;0.10;0.10;;;;;;;;;;4939994;28;20049;-91
2022/10/15 01:53:50;;;;;;;0.43;0.40;;;;;;;;;;4940019;28;20043;-89
2022/10/15 01:56:17;;;;;;;0.10;0.10;;;;;;;;;;4956130;28;20392;-90
2022/10/15 01:58:44;;;;;;;0.85;0.20;;;;;;;;;;4939998;28;20049;-90
2022/10/15 02:01:10;;;;;;;0.10;0.10;;;;;;;;;;4940016;28;20043;-91
2022/10/15 02:03:49;;;;;;;0.22;0.20;;;;;;;;;;4940106;28;20039;-90
2022/10/15 02:06:36;;;;;;;0.10;0.10;;;;;;;;;;4940254;28;20051;-90
2022/10/15 02:09:20;;;;;;;0.10;0.10;;;;;;;;;;4955690;28;20130;-91
2022/10/15 02:11:50;;;;;;;0.10;0.10;;;;;;;;;;4955883;28;20105;-91
2022/10/15 02:14:18;;;;;;;0.32;0.32;;;;;;;;;;4940087;28;20546;-91
2022/10/15 02:16:56;;;;;;;0.10;0.10;;;;;;;;;;4940006;28;20068;-90
2022/10/15 02:19:38;;;;;;;0.20;0.20;;;;;;;;;;4959120;28;20069;-90
2022/10/15 02:22:14;;;;;;;0.40;0.30;;;;;;;;;;4943904;28;20400;-91
2022/10/15 02:24:43;;;;;;;0.10;0.10;;;;;;;;;;4959627;28;20133;-90
2022/10/15 02:27:09;;;;;;;0.30;0.30;;;;;;;;;;4959528;28;20042;-89
2022/10/15 02:29:35;;;;;;;0.35;0.35;;;;;;;;;;4959289;28;20101;-89
2022/10/15 02:32:01;;;;;;;0.30;0.30;;;;;;;;;;4943373;28;20053;-89
2022/10/15 02:34:28;;;;;;;0.22;0.22;;;;;;;;;;4943475;28;20038;-89
2022/10/15 02:36:54;;;;;;;0.10;0.10;;;;;;;;;;4959360;28;20043;-87
2022/10/15 02:39:22;;;;;;;0.28;0.28;;;;;;;;;;4959429;28;20042;-88
2022/10/15 02:41:48;;;;;;;0.20;0.20;;;;;;;;;;4959819;28;20141;-88
2022/10/15 02:44:14;;;;;;;0.10;0.10;;;;;;;;;;4959147;28;20504;-89
2022/10/15 02:46:40;;;;;;;0.55;0.52;;;;;;;;;;4959079;28;20078;-89
2022/10/15 02:49:06;;;;;;;0.20;0.20;;;;;;;;;;4943244;28;20085;-89
2022/10/15 02:51:33;;;;;;;0.10;0.10;;;;;;;;;;4943007;28;20046;-88
2022/10/15 02:53:59;;;;;;;0.10;0.10;;;;;;;;;;4943154;28;20166;-88
2022/10/15 02:56:25;;;;;;;0.10;0.10;;;;;;;;;;4942909;28;20046;-89
2022/10/15 02:58:51;;;;;;;0.10;0.10;;;;;;;;;;4942994;28;20062;-89
2022/10/15 03:01:17;;;;;;;0.30;0.30;;;;;;;;;;4942854;28;20097;-89
2022/10/15 03:03:43;;;;;;;0.32;0.30;;;;;;;;;;4959099;28;20047;-89
2022/10/15 03:06:09;;;;;;;0.20;0.20;;;;;;;;;;4943009;28;20051;-89
2022/10/15 03:08:35;;;;;;;0.30;0.30;;;;;;;;;;4958769;28;20247;-89
2022/10/15 03:11:01;;;;;;;0.28;0.28;;;;;;;;;;4942571;28;20042;-89
2022/10/15 03:13:28;;;;;;;0.20;0.20;;;;;;;;;;4958368;28;20051;-88
2022/10/15 03:15:53;;;;;;;0.20;0.20;;;;;;;;;;4959215;28;20441;-89
2022/10/15 03:18:19;;;;;;;0.20;0.20;;;;;;;;;;4958590;28;20043;-89
2022/10/15 03:20:52;;;;;;;0.45;0.45;;;;;;;;;;4958342;28;20129;-91
2022/10/15 03:23:18;;;;;;;0.10;0.10;;;;;;;;;;4942523;28;20078;-91
2022/10/15 03:25:44;;;;;;;0.10;0.10;;;;;;;;;;4942662;28;20050;-91
2022/10/15 03:28:10;;;;;;;0.10;0.10;;;;;;;;;;4942349;28;20431;-91
2022/10/15 03:30:36;;;;;;;0.30;0.30;;;;;;;;;;4941356;28;20143;-91
2022/10/15 03:33:02;;;;;;;0.20;0.20;;;;;;;;;;4958698;28;20090;-90
2022/10/15 03:35:28;;;;;;;0.20;0.20;;;;;;;;;;4942253;28;20102;-89
2022/10/15 03:37:54;;;;;;;0.10;0.10;;;;;;;;;;4942413;28;20101;-90
2022/10/15 03:40:20;;;;;;;0.10;0.10;;;;;;;;;;4958904;28;20047;-89
2022/10/15 03:42:50;;;;;;;0.20;0.20;;;;;;;;;;4958857;28;20043;-90
2022/10/15 03:45:16;;;;;;;0.10;0.10;;;;;;;;;;4942526;28;20492;-89
2022/10/15 03:47:42;;;;;;;0.10;0.10;;;;;;;;;;4942536;28;20063;-90
2022/10/15 03:50:08;;;;;;;0.10;0.10;;;;;;;;;;4942000;28;20039;-90
2022/10/15 03:52:35;;;;;;;0.10;0.10;;;;;;;;;;4941873;28;20043;-90
2022/10/15 03:55:01;;;;;;;0.10;0.10;;;;;;;;;;4941763;28;20034;-90
2022/10/15 03:57:28;;;;;;;0.10;0.10;;;;;;;;;;4973794;28;20460;-88
2022/10/15 03:59:54;;;;;;;1.27;0.45;;;;;;;;;;4957749;28;20042;-90
2022/10/15 04:02:19;;;;;;;0.10;0.10;;;;;;;;;;4941716;28;20061;-90
2022/10/15 04:04:46;;;;;;;0.15;0.15;;;;;;;;;;4941498;28;20047;-90
2022/10/15 04:07:12;;;;;;;0.20;0.20;;;;;;;;;;4957477;28;20049;-89
2022/10/15 04:09:38;;;;;;;0.10;0.10;;;;;;;;;;4941528;28;20408;-90
2022/10/15 04:12:04;;;;;;;0.10;0.10;;;;;;;;;;4941345;28;20081;-89
2022/10/15 04:14:30;;;;;;;0.10;0.10;;;;;;;;;;4941338;28;20118;-89
2022/10/15 04:16:57;;;;;;;0.25;0.20;;;;;;;;;;4957399;28;20129;-89
2022/10/15 04:19:24;;;;;;;0.10;0.10;;;;;;;;;;4957550;28;20500;-89
2022/10/15 04:21:50;;;;;;;0.10;0.10;;;;;;;;;;4957407;28;20101;-89
2022/10/15 04:24:16;;;;;;;0.20;0.20;;;;;;;;;;4941011;28;20496;-90
2022/10/15 04:26:42;;;;;;;0.10;0.10;;;;;;;;;;4941417;28;20043;-90
2022/10/15 04:29:08;;;;;;;0.10;0.10;;;;;;;;;;4957048;28;20060;-89
2022/10/15 04:31:34;;;;;;;0.15;0.15;;;;;;;;;;4941031;28;20197;-89
2022/10/15 04:34:00;;;;;;;0.10;0.10;;;;;;;;;;4956975;28;20539;-89
2022/10/15 04:36:26;;;;;;;0.10;0.10;;;;;;;;;;4941270;28;20043;-90
2022/10/15 04:38:52;;;;;;;0.10;0.10;;;;;;;;;;4956729;28;20055;-89
2022/10/15 04:41:18;;;;;;;0.10;0.10;;;;;;;;;;4940610;28;20038;-90
2022/10/15 04:43:44;;;;;;;0.10;0.10;;;;;;;;;;4940999;28;20035;-89
2022/10/15 04:46:10;;;;;;;0.10;0.10;;;;;;;;;;4940945;28;20093;-89
2022/10/15 04:48:36;;;;;;;0.10;0.10;;;;;;;;;;4956747;28;20038;-88
2022/10/15 04:51:09;;;;;;;0.20;0.20;;;;;;;;;;4956534;28;20051;-90
2022/10/15 04:53:35;;;;;;;0.10;0.10;;;;;;;;;;4956490;28;20043;-89
2022/10/15 04:56:05;;;;;;;0.10;0.10;;;;;;;;;;4940637;28;20042;-89
2022/10/15 04:58:31;;;;;;;0.10;0.10;;;;;;;;;;4940724;28;20126;-90
2022/10/15 05:01:04;;;;;;;0.15;0.15;;;;;;;;;;4940686;28;20129;-90
2022/10/15 05:03:30;;;;;;;0.10;0.10;;;;;;;;;;4940691;28;20039;-89
2022/10/15 05:06:00;;;;;;;0.30;0.30;;;;;;;;;;4956476;28;20047;-89
2022/10/15 05:08:26;;;;;;;0.10;0.10;;;;;;;;;;4940902;28;20038;-88
2022/10/15 05:10:52;;;;;;;0.10;0.10;;;;;;;;;;4956158;28;20126;-89
2022/10/15 05:13:18;;;;;;;0.20;0.20;;;;;;;;;;4940243;28;20153;-89
2022/10/15 05:15:44;;;;;;;0.65;0.65;;;;;;;;;;4956486;28;20046;-88
2022/10/15 05:18:11;;;;;;;0.10;0.10;;;;;;;;;;4956327;28;20511;-89
2022/10/15 05:20:37;;;;;;;0.10;0.10;;;;;;;;;;4940305;28;20050;-89
2022/10/15 05:23:05;;;;;;;0.10;0.10;;;;;;;;;;4956369;28;20058;-88
2022/10/15 05:25:31;;;;;;;0.17;0.17;;;;;;;;;;4940568;28;20049;-90
2022/10/15 05:27:57;;;;;;;0.20;0.20;;;;;;;;;;4940404;28;20047;-90
2022/10/15 05:30:23;;;;;;;0.45;0.45;;;;;;;;;;4940033;28;20035;-90
2022/10/15 05:32:52;;;;;;;0.10;0.10;;;;;;;;;;4955995;28;20054;-88
2022/10/15 05:35:18;;;;;;;0.17;0.17;;;;;;;;;;4956312;28;20137;-89
2022/10/15 05:37:44;;;;;;;0.10;0.10;;;;;;;;;;4939991;28;20046;-88
2022/10/15 05:40:10;;;;;;;0.20;0.20;;;;;;;;;;4956033;28;20051;-88
2022/10/15 05:42:36;;;;;;;0.10;0.10;;;;;;;;;;4940020;28;20054;-88
2022/10/15 05:45:02;;;;;;;0.10;0.10;;;;;;;;;;4955925;28;20046;-89
2022/10/15 05:47:28;;;;;;;0.10;0.10;;;;;;;;;;4955992;28;20081;-89
2022/10/15 05:49:54;;;;;;;0.10;0.10;;;;;;;;;;4955667;28;20086;-89
2022/10/15 05:52:20;;;;;;;0.10;0.10;;;;;;;;;;4971267;28;20046;-90
2022/10/15 05:54:46;;;;;;;0.38;0.30;;;;;;;;;;4956030;28;20392;-90
2022/10/15 05:57:12;;;;;;;0.50;0.50;;;;;;;;;;4939804;28;20042;-88
2022/10/15 05:59:38;;;;;;;0.50;0.50;;;;;;;;;;4955632;28;20407;-89
2022/10/15 06:02:04;;;;;;;0.22;0.22;;;;;;;;;;4939853;28;20058;-88
2022/10/15 06:04:31;;;;;;;0.30;0.30;;;;;;;;;;4956114;28;20133;-88
2022/10/15 06:06:57;;;;;;;0.20;0.20;;;;;;;;;;4955752;28;20047;-87
2022/10/15 06:09:24;;;;;;;0.20;0.20;;;;;;;;;;4955880;28;20038;-87
2022/10/15 06:11:50;;;;;;;0.10;0.10;;;;;;;;;;4971604;28;20059;-87
2022/10/15 06:14:16;;;;;;;0.10;0.10;;;;;;;;;;4955644;28;20049;-87
2022/10/15 06:16:42;;;;;;;0.22;0.22;;;;;;;;;;4955588;28;20058;-87
2022/10/15 06:19:08;;;;;;;0.40;0.40;;;;;;;;;;4971476;28;20049;-87
2022/10/15 06:21:34;;;;;;;0.10;0.10;;;;;;;;;;4955683;28;20039;-88
2022/10/15 06:24:01;;;;;;;0.20;0.20;;;;;;;;;;4939826;28;20042;-89
2022/10/15 06:26:27;;;;;;;0.10;0.10;;;;;;;;;;4955549;28;20195;-90
2022/10/15 06:28:54;;;;;;;0.10;0.10;;;;;;;;;;4939471;28;20150;-89
2022/10/15 06:31:20;;;;;;;0.20;0.20;;;;;;;;;;4955808;28;20444;-89
2022/10/15 06:33:46;;;;;;;0.20;0.20;;;;;;;;;;4939742;28;20070;-89
2022/10/15 06:36:14;;;;;;;0.10;0.10;;;;;;;;;;4955464;28;20438;-89
2022/10/15 06:38:43;;;;;;;0.30;0.30;;;;;;;;;;4955762;28;20503;-89
2022/10/15 06:41:10;;;;;;;0.10;0.10;;;;;;;;;;4939591;28;20495;-89
2022/10/15 06:43:36;;;;;;;0.15;0.15;;;;;;;;;;4939508;28;20078;-90
2022/10/15 06:46:02;;;;;;;0.52;0.52;;;;;;;;;;4939540;28;20090;-88
2022/10/15 06:48:28;;;;;;;0.10;0.10;;;;;;;;;;4955442;28;20568;-87
2022/10/15 06:50:54;;;;;;;0.10;0.10;;;;;;;;;;4955157;28;20121;-87
2022/10/15 06:53:21;;;;;;;0.20;0.20;;;;;;;;;;4955404;28;20039;-88
2022/10/15 06:55:47;;;;;;;0.10;0.10;;;;;;;;;;4939547;28;20043;-88
2022/10/15 06:58:13;;;;;;;0.17;0.17;;;;;;;;;;4939523;28;20089;-86
2022/10/15 07:00:39;;;;;;;1.20;0.52;;;;;;;;;;4955297;28;20043;-86
2022/10/15 07:03:06;;;;;;;0.20;0.20;;;;;;;;;;4955385;28;20512;-87
2022/10/15 07:05:32;;;;;;;0.30;0.30;;;;;;;;;;4956960;28;20370;-88
2022/10/15 07:07:58;;;;;;;0.52;0.40;;;;;;;;;;4942695;28;20043;-88
2022/10/15 07:10:24;;;;;;;0.20;0.20;;;;;;;;;;4942209;28;20047;-88
2022/10/15 07:12:50;;;;;;;0.10;0.10;;;;;;;;;;4958480;28;20047;-89
2022/10/15 07:15:16;;;;;;;0.30;0.30;;;;;;;;;;4942429;28;20079;-88
2022/10/15 07:17:47;;;;;;;0.13;0.13;;;;;;;;;;4958356;28;20050;-88
2022/10/15 07:20:13;;;;;;;0.38;0.38;;;;;;;;;;4942793;28;20377;-88
2022/10/15 07:22:39;;;;;;;0.45;0.45;;;;;;;;;;4942513;28;20094;-86
2022/10/15 07:25:05;;;;;;;0.88;0.45;;;;;;;;;;4942751;28;20051;-88
2022/10/15 07:27:31;;;;;;;0.10;0.10;;;;;;;;;;4958209;28;20085;-89
2022/10/15 07:29:57;;;;;;;0.43;0.20;;;;;;;;;;4958319;28;20530;-87
2022/10/15 07:32:23;;;;;;;0.10;0.10;;;;;;;;;;4958141;28;20046;-87
2022/10/15 07:34:49;;;;;;;0.13;0.13;;;;;;;;;;4958201;28;20046;-87
2022/10/15 07:37:15;;;;;;;0.65;0.65;;;;;;;;;;4957964;28;20408;-87
2022/10/15 07:39:41;;;;;;;0.10;0.10;;;;;;;;;;4974020;28;20129;-85
2022/10/15 07:42:07;;;;;;;0.10;0.10;;;;;;;;;;4958306;28;20054;-87
2022/10/15 07:44:33;;;;;;;0.17;0.17;;;;;;;;;;4973965;28;20039;-87
2022/10/15 07:46:59;;;;;;;0.30;0.20;;;;;;;;;;4942072;28;20058;-87
2022/10/15 07:49:25;;;;;;;0.40;0.40;;;;;;;;;;4957848;28;20053;-88
2022/10/15 07:51:51;;;;;;;0.17;0.17;;;;;;;;;;4973809;28;20501;-86
2022/10/15 07:54:17;;;;;;;0.98;0.98;;;;;;;;;;4973884;28;20041;-86
2022/10/15 07:56:43;;;;;;;0.10;0.10;;;;;;;;;;4957662;28;20125;-87
2022/10/15 07:59:09;;;;;;;0.40;0.40;;;;;;;;;;4957997;28;20041;-87
2022/10/15 08:01:35;;;;;;;0.20;0.20;;;;;;;;;;4957613;28;20130;-87
2022/10/15 08:04:01;;;;;;;0.20;0.20;;;;;;;;;;4941733;28;20043;-86
2022/10/15 08:06:27;;;;;;;0.73;0.73;;;;;;;;;;4957510;28;20352;-85
2022/10/15 08:08:53;;;;;;;0.10;0.10;;;;;;;;;;4973642;28;20109;-86
2022/10/15 08:11:19;;;;;;;0.43;0.40;;;;;;;;;;4957171;28;20542;-87
2022/10/15 08:13:47;;;;;;;1.65;0.47;;;;;;;;;;4973388;28;20061;-89
2022/10/15 08:16:13;;;;;;;0.20;0.15;;;;;;;;;;4956823;28;20146;-87
2022/10/15 08:18:39;;;;;;;0.10;0.10;;;;;;;;;;4941825;28;20054;-88
2022/10/15 08:21:06;;;;;;;0.10;0.10;;;;;;;;;;4957187;28;20078;-87
2022/10/15 08:23:32;;;;;;;0.10;0.10;;;;;;;;;;4957097;28;20282;-87
2022/10/15 08:25:59;;;;;;;0.20;0.20;;;;;;;;;;4957095;28;20042;-88
2022/10/15 08:28:25;;;;;;;0.40;0.40;;;;;;;;;;4957450;28;20097;-88
2022/10/15 08:30:51;;;;;;;0.20;0.20;;;;;;;;;;4957076;28;20441;-88
2022/10/15 08:33:17;;;;;;;0.35;0.35;;;;;;;;;;4973046;28;20133;-92
2022/10/15 08:35:43;;;;;;;0.20;0.20;;;;;;;;;;4941079;28;20501;-87
2022/10/15 08:38:10;;;;;;;0.73;0.52;;;;;;;;;;4957140;28;20047;-89
2022/10/15 08:40:36;;;;;;;0.10;0.10;;;;;;;;;;4956695;28;20061;-95
2022/10/15 08:43:03;;;;;;;0.10;0.10;;;;;;;;;;4941282;28;20129;-88
2022/10/15 08:45:31;;;;;;;0.10;0.10;;;;;;;;;;4940932;28;20043;-87
2022/10/15 08:48:04;;;;;;;0.10;0.10;;;;;;;;;;4941069;28;20370;-88
2022/10/15 08:50:43;;;;;;;0.20;0.20;;;;;;;;;;4972889;28;20050;-88
2022/10/15 08:53:12;;;;;;;0.10;0.10;;;;;;;;;;4940562;28;20042;-89
2022/10/15 08:55:39;;;;;;;1.45;0.90;;;;;;;;;;4940595;28;20050;-90
2022/10/15 08:58:21;;;;;;;0.40;0.40;;;;;;;;;;4940477;28;20049;-89
2022/10/15 09:00:50;;;;;;;0.20;0.20;;;;;;;;;;4956385;28;20523;-87
2022/10/15 09:03:34;;;;;;;0.10;0.10;;;;;;;;;;4956742;28;20038;-87
2022/10/15 09:06:03;;;;;;;0.20;0.20;;;;;;;;;;4956541;28;20082;-87
2022/10/15 09:08:30;;;;;;;0.30;0.30;;;;;;;;;;4972158;28;20038;-91
2022/10/15 09:10:57;;;;;;;0.52;0.52;;;;;;;;;;4972249;28;20100;-88
2022/10/15 09:13:30;;;;;;;0.20;0.20;;;;;;;;;;4940069;28;20062;-87
2022/10/15 09:15:59;;;;;;;0.10;0.10;;;;;;;;;;4956275;28;20050;-89
2022/10/15 09:18:25;;;;;;;0.10;0.10;;;;;;;;;;4940341;28;20546;-87
2022/10/15 09:20:51;;;;;;;0.40;0.40;;;;;;;;;;4940064;28;20500;-92
2022/10/15 09:23:18;;;;;;;0.65;0.30;;;;;;;;;;4956305;28;20464;-91
2022/10/15 09:25:45;;;;;;;0.25;0.20;;;;;;;;;;4940288;28;20038;-91
2022/10/15 09:28:13;;;;;;;0.10;0.10;;;;;;;;;;4955526;28;20444;-91
2022/10/15 09:30:49;;;;;;;0.10;0.10;;;;;;;;;;4939893;28;20531;-91
2022/10/15 09:33:24;;;;;;;0.10;0.10;;;;;;;;;;4956118;28;20129;-90
2022/10/15 09:36:03;;;;;;;0.10;0.10;;;;;;;;;;4956381;28;20053;-90
2022/10/15 09:38:36;;;;;;;0.10;0.10;;;;;;;;;;4955930;28;20039;-90
2022/10/15 09:41:15;;;;;;;0.10;0.10;;;;;;;;;;4940108;28;20326;-89
2022/10/15 09:43:41;;;;;;;0.40;0.40;;;;;;;;;;4955695;28;20511;-88
2022/10/15 09:46:08;;;;;;;0.10;0.10;;;;;;;;;;4955852;28;20045;-88
2022/10/15 09:48:36;;;;;;;0.10;0.10;;;;;;;;;;4954237;28;20121;-89
2022/10/15 09:51:14;;;;;;;0.30;0.20;;;;;;;;;;4952398;29;20051;-88
2022/10/15 09:53:44;;;;;;;0.25;0.25;;;;;;;;;;4953683;28;20098;-88
2022/10/15 09:56:15;;;;;;;0.10;0.10;;;;;;;;;;4936459;29;20051;-88
2022/10/15 09:58:50;;;;;;;0.10;0.10;;;;;;;;;;4920946;29;20480;-88
2022/10/15 10:01:17;;;;;;;0.20;0.10;;;;;;;;;;4952259;28;20493;-90
2022/10/15 10:03:43;;;;;;;0.20;0.20;;;;;;;;;;4938095;29;20463;-92
2022/10/15 10:06:10;;;;;;;0.90;0.85;;;;;;;;;;4952043;28;20122;-88
2022/10/15 10:08:55;;;;;;;0.10;0.10;;;;;;;;;;4955571;28;20034;-88
2022/10/15 10:11:21;;;;;;;0.22;0.15;;;;;;;;;;4955028;28;20121;-88
2022/10/15 10:13:47;;;;;;;0.63;0.63;;;;;;;;;;4939722;28;20515;-87
2022/10/15 10:16:13;;;;;;;0.20;0.20;;;;;;;;;;4971851;28;20039;-89
2022/10/15 10:18:40;;;;;;;0.30;0.30;;;;;;;;;;4955543;28;20130;-91
2022/10/15 10:21:09;;;;;;;0.20;0.20;;;;;;;;;;4939795;28;20503;-92
2022/10/15 10:23:36;;;;;;;0.20;0.20;;;;;;;;;;4939538;28;20130;-87
2022/10/15 10:26:03;;;;;;;0.52;0.52;;;;;;;;;;4955721;28;20062;-87
2022/10/15 10:28:44;;;;;;;0.20;0.20;;;;;;;;;;4971546;28;20051;-86
2022/10/15 10:31:10;;;;;;;0.10;0.10;;;;;;;;;;4955157;28;20101;-86
2022/10/15 10:33:46;;;;;;;0.30;0.20;;;;;;;;;;4971650;28;20167;-86
2022/10/15 10:36:20;;;;;;;0.20;0.20;;;;;;;;;;4971799;28;20050;-85
2022/10/15 10:38:54;;;;;;;0.32;0.20;;;;;;;;;;4972138;28;20043;-87
2022/10/15 10:41:20;;;;;;;0.52;0.43;;;;;;;;;;4958597;28;20051;-86
2022/10/15 10:43:53;;;;;;;0.52;0.52;;;;;;;;;;4927411;29;20430;-86
2022/10/15 10:46:20;;;;;;;0.25;0.25;;;;;;;;;;4939979;29;20039;-87
2022/10/15 10:48:53;;;;;;;0.20;0.20;;;;;;;;;;4942150;29;20400;-87
2022/10/15 10:51:19;;;;;;;0.60;0.60;;;;;;;;;;4943642;29;20039;-86
2022/10/15 10:53:58;;;;;;;0.20;0.20;;;;;;;;;;4943596;29;20067;-86
2022/10/15 10:56:31;;;;;;;0.10;0.10;;;;;;;;;;4970659;28;20030;-87
2022/10/15 10:58:58;;;;;;;0.10;0.10;;;;;;;;;;4945906;29;20031;-87
2022/10/15 11:01:24;;;;;;;0.10;0.10;;;;;;;;;;4953514;29;20054;-86
2022/10/15 11:03:50;;;;;;;0.47;0.47;;;;;;;;;;4955272;29;20039;-84
2022/10/15 11:06:20;;;;;;;0.10;0.10;;;;;;;;;;4939559;29;20126;-85
2022/10/15 11:08:52;;;;;;;0.10;0.10;;;;;;;;;;4939785;29;20373;-87
2022/10/15 11:11:21;;;;;;;0.20;0.20;;;;;;;;;;4955013;29;20047;-87
2022/10/15 11:14:07;;;;;;;0.60;0.15;;;;;;;;;;4939407;29;20066;-88
2022/10/15 11:16:42;;;;;;;0.10;0.10;;;;;;;;;;4938945;29;20090;-88
2022/10/15 11:19:27;;;;;;;0.73;0.70;;;;;;;;;;4938978;29;20086;-88
2022/10/15 11:22:08;;;;;;;0.20;0.20;;;;;;;;;;4954791;29;20164;-85
2022/10/15 11:24:37;;;;;;;0.10;0.10;;;;;;;;;;4955028;29;20085;-87
2022/10/15 11:27:32;;;;;;;0.10;0.10;;;;;;;;;;4954992;29;20098;-86
2022/10/15 11:30:01;;;;;;;0.10;0.10;;;;;;;;;;4926906;29;20110;-86
2022/10/15 11:32:36;;;;;;;0.15;0.15;;;;;;;;;;4938951;29;20043;-86
2022/10/15 11:35:12;;;;;;;0.10;0.10;;;;;;;;;;4954924;29;20055;-86
2022/10/15 11:37:43;;;;;;;0.15;0.15;;;;;;;;;;4938773;29;20043;-86
2022/10/15 11:40:09;;;;;;;0.10;0.10;;;;;;;;;;4939000;29;20126;-86
2022/10/15 11:42:44;;;;;;;0.10;0.10;;;;;;;;;;4954377;29;20051;-86
2022/10/15 11:45:25;;;;;;;0.35;0.35;;;;;;;;;;4938726;29;20046;-85
2022/10/15 11:48:09;;;;;;;0.10;0.10;;;;;;;;;;4938937;29;20493;-87
2022/10/15 11:50:45;;;;;;;0.10;0.10;;;;;;;;;;4937659;29;20055;-87
2022/10/15 11:53:17;;;;;;;0.20;0.20;;;;;;;;;;4938691;29;20071;-88
2022/10/15 11:55:50;;;;;;;0.10;0.10;;;;;;;;;;4938522;29;20489;-87
2022/10/15 11:58:37;;;;;;;0.10;0.10;;;;;;;;;;4938467;29;20178;-87
2022/10/15 12:01:05;;;;;;;0.25;0.25;;;;;;;;;;4938210;29;20098;-87
2022/10/15 12:03:33;;;;;;;0.10;0.10;;;;;;;;;;4922588;29;20043;-87
2022/10/15 12:06:00;;;;;;;0.10;0.10;;;;;;;;;;4938204;29;20035;-87
2022/10/15 12:08:26;;;;;;;0.10;0.10;;;;;;;;;;4938267;29;20087;-87
2022/10/15 12:10:52;;;;;;;0.10;0.10;;;;;;;;;;4938251;29;20043;-87
2022/10/15 12:13:22;;;;;;;0.10;0.10;;;;;;;;;;4953753;29;20386;-86
2022/10/15 12:15:56;;;;;;;0.10;0.10;;;;;;;;;;4938258;29;20051;-87
2022/10/15 12:18:33;;;;;;;0.10;0.10;;;;;;;;;;4954160;29;20130;-86
2022/10/15 12:20:59;;;;;;;0.30;0.30;;;;;;;;;;4937862;29;20074;-87
2022/10/15 12:23:26;;;;;;;0.17;0.17;;;;;;;;;;4937687;29;20137;-84
2022/10/15 12:25:52;;;;;;;0.10;0.10;;;;;;;;;;4953812;29;20051;-86
2022/10/15 12:28:22;;;;;;;0.17;0.17;;;;;;;;;;4922317;29;20031;-86
2022/10/15 12:30:58;;;;;;;0.10;0.10;;;;;;;;;;4937726;29;20079;-86
2022/10/15 12:33:45;;;;;;;0.10;0.10;;;;;;;;;;4937872;29;20074;-88
2022/10/15 12:36:27;;;;;;;0.10;0.10;;;;;;;;;;4922025;29;20050;-86
2022/10/15 12:39:04;;;;;;;0.30;0.30;;;;;;;;;;4938173;29;20055;-85
2022/10/15 12:41:42;;;;;;;0.20;0.20;;;;;;;;;;4937521;29;20489;-85
2022/10/15 12:44:14;;;;;;;0.40;0.40;;;;;;;;;;4937569;29;20051;-85
2022/10/15 12:46:40;;;;;;;0.32;0.32;;;;;;;;;;4921800;29;20405;-85
2022/10/15 12:49:30;;;;;;;0.17;0.17;;;;;;;;;;4937626;29;20142;-85
2022/10/15 12:51:57;;;;;;;0.10;0.10;;;;;;;;;;4953558;29;20194;-85
2022/10/15 12:54:32;;;;;;;0.10;0.10;;;;;;;;;;4953347;29;20039;-86
2022/10/15 12:56:58;;;;;;;1.55;0.22;;;;;;;;;;4937045;29;20126;-85
2022/10/15 12:59:52;;;;;;;0.30;0.30;;;;;;;;;;4921744;29;20395;-85
2022/10/15 13:02:47;;;;;;;0.10;0.10;;;;;;;;;;4953472;28;20095;-87
2022/10/15 13:05:26;;;;;;;0.25;0.20;;;;;;;;;;4941185;29;20051;-87
2022/10/15 13:07:52;;;;;;;0.20;0.20;;;;;;;;;;4921561;29;20043;-87
2022/10/15 13:10:20;;;;;;;0.20;0.20;;;;;;;;;;4937409;29;20050;-87
2022/10/15 13:12:50;;;;;;;0.17;0.17;;;;;;;;;;4937043;29;20081;-87
2022/10/15 13:15:16;;;;;;;0.10;0.10;;;;;;;;;;4937152;29;20063;-86
2022/10/15 13:17:42;;;;;;;0.20;0.20;;;;;;;;;;4952820;29;20057;-86
2022/10/15 13:20:09;;;;;;;0.50;0.50;;;;;;;;;;4937286;29;20097;-86
2022/10/15 13:22:36;;;;;;;0.28;0.28;;;;;;;;;;4952788;29;20051;-87
2022/10/15 13:25:02;;;;;;;0.20;0.20;;;;;;;;;;4921039;29;20071;-87
2022/10/15 13:27:31;;;;;;;0.22;0.20;;;;;;;;;;4936946;29;20046;-87
2022/10/15 13:30:01;;;;;;;0.10;0.10;;;;;;;;;;4936922;29;20049;-87
2022/10/15 13:32:28;;;;;;;0.10;0.10;;;;;;;;;;4936891;29;20090;-87
2022/10/15 13:34:56;;;;;;;0.10;0.10;;;;;;;;;;4937008;29;20050;-86
2022/10/15 13:37:24;;;;;;;0.20;0.20;;;;;;;;;;4937202;29;20050;-86
2022/10/15 13:39:51;;;;;;;0.10;0.10;;;;;;;;;;4921115;29;20405;-86
2022/10/15 13:42:18;;;;;;;0.10;0.10;;;;;;;;;;4936777;29;20094;-88
2022/10/15 13:44:55;;;;;;;0.10;0.10;;;;;;;;;;4920987;29;20039;-87
2022/10/15 13:47:25;;;;;;;0.20;0.20;;;;;;;;;;4936890;29;20043;-87
2022/10/15 13:49:51;;;;;;;0.10;0.10;;;;;;;;;;4920995;29;20436;-87
2022/10/15 13:52:17;;;;;;;0.25;0.25;;;;;;;;;;4936610;29;20043;-87
2022/10/15 13:54:46;;;;;;;0.20;0.20;;;;;;;;;;4920847;29;20551;-88
2022/10/15 13:57:14;;;;;;;0.10;0.10;;;;;;;;;;4920974;29;20500;-90
2022/10/15 13:59:40;;;;;;;0.15;0.15;;;;;;;;;;4936476;29;20042;-90
2022/10/15 14:02:09;;;;;;;0.10;0.10;;;;;;;;;;4936254;29;20457;-90
2022/10/15 14:04:35;;;;;;;0.10;0.10;;;;;;;;;;4936847;29;20501;-89
2022/10/15 14:07:05;;;;;;;0.10;0.10;;;;;;;;;;4920606;29;20039;-88
2022/10/15 14:09:34;;;;;;;0.10;0.10;;;;;;;;;;4936145;29;20126;-87
2022/10/15 14:12:00;;;;;;;0.13;0.13;;;;;;;;;;4935887;29;20074;-88
2022/10/15 14:14:27;;;;;;;0.30;0.30;;;;;;;;;;4954194;28;20522;-87
2022/10/15 14:16:54;;;;;;;0.52;0.52;;;;;;;;;;4940521;29;20075;-89
2022/10/15 14:19:25;;;;;;;0.20;0.20;;;;;;;;;;4940201;29;20126;-87
2022/10/15 14:21:51;;;;;;;0.10;0.10;;;;;;;;;;4940676;29;20054;-88
2022/10/15 14:24:20;;;;;;;0.10;0.10;;;;;;;;;;4940234;29;20427;-87
2022/10/15 14:26:46;;;;;;;0.10;0.10;;;;;;;;;;4955759;29;20043;-87
2022/10/15 14:29:16;;;;;;;0.40;0.40;;;;;;;;;;4955513;29;20050;-89
2022/10/15 14:31:45;;;;;;;0.30;0.30;;;;;;;;;;4923926;29;20524;-87
2022/10/15 14:34:44;;;;;;;0.20;0.20;;;;;;;;;;4939860;29;20035;-88
2022/10/15 14:37:29;;;;;;;0.10;0.10;;;;;;;;;;4924409;29;20050;-88
2022/10/15 14:40:02;;;;;;;0.10;0.10;;;;;;;;;;4939614;29;20039;-88
2022/10/15 14:42:30;;;;;;;0.10;0.10;;;;;;;;;;4923937;29;20079;-88
2022/10/15 14:44:56;;;;;;;0.10;0.10;;;;;;;;;;4939806;29;20077;-89
2022/10/15 14:47:23;;;;;;;0.20;0.20;;;;;;;;;;4940002;29;20046;-89
2022/10/15 14:49:50;;;;;;;0.10;0.10;;;;;;;;;;4940512;29;20412;-89
2022/10/15 14:52:18;;;;;;;0.10;0.10;;;;;;;;;;4923746;29;20054;-88
2022/10/15 14:54:46;;;;;;;0.10;0.10;;;;;;;;;;4923810;29;20049;-88